createdAt,value
2023-03-27T00:00:12.870Z,100314.63
2023-03-27T00:02:42.112Z,100320.81
2023-03-27T00:05:10.374Z,100326.50
2023-03-27T00:07:41.080Z,100325.84
2023-03-27T00:10:09.654Z,100330.88
2023-03-27T00:12:37.279Z,100335.06
2023-03-27T00:15:05.717Z,100338.25
2023-03-27T00:17:33.617Z,100347.28
2023-03-27T00:20:04.766Z,100351.50
2023-03-27T00:22:32.471Z,100354.34
2023-03-27T00:25:00.159Z,100364.72
2023-03-27T00:27:27.831Z,100362.22
2023-03-27T00:29:56.096Z,100364.03
2023-03-27T00:32:23.685Z,100376.78
2023-03-27T00:34:51.220Z,100379.97
2023-03-27T00:37:20.533Z,100382.44
2023-03-27T00:39:50.002Z,100391.47
2023-03-27T00:42:22.639Z,100399.19
2023-03-27T00:44:51.422Z,100402.59
2023-03-27T00:47:22.919Z,100406.38
2023-03-27T00:49:52.458Z,100408.41
2023-03-27T00:52:22.235Z,100408.94
2023-03-27T00:54:50.056Z,100416.81
2023-03-27T00:57:21.882Z,100419.34
2023-03-27T00:59:53.623Z,100417.81
2023-03-27T01:02:23.156Z,100427.88
2023-03-27T01:04:51.388Z,100421.69
2023-03-27T01:07:21.001Z,100433.59
2023-03-27T01:09:49.723Z,100437.63
2023-03-27T01:12:34.386Z,100440.47
2023-03-27T01:15:20.161Z,100439.97
2023-03-27T01:18:00.836Z,100441.97
2023-03-27T01:21:07.413Z,100444.66
2023-03-27T01:24:04.717Z,100447.69
2023-03-27T01:26:57.507Z,100451.72
2023-03-27T01:29:37.696Z,100464.25
2023-03-27T01:32:34.622Z,100457.72
2023-03-27T01:35:33.006Z,100453.19
2023-03-27T01:38:24.953Z,100461.25
2023-03-27T01:41:02.226Z,100467.47
2023-03-27T01:43:36.413Z,100465.75
2023-03-27T01:46:09.665Z,100457.03
2023-03-27T01:48:45.663Z,100464.28
2023-03-27T01:51:20.638Z,100462.41
2023-03-27T01:53:52.365Z,100473.34
2023-03-27T01:56:27.074Z,100475.69
2023-03-27T01:59:03.858Z,100469.63
2023-03-27T02:01:37.407Z,100481.34
2023-03-27T02:04:10.359Z,100482.56
2023-03-27T02:06:41.705Z,100494.09
2023-03-27T02:09:13.089Z,100491.75
2023-03-27T02:11:47.667Z,100490.06
2023-03-27T02:14:20.848Z,100490.72
2023-03-27T02:16:57.042Z,100492.41
2023-03-27T02:19:30.076Z,100495.44
2023-03-27T02:21:57.965Z,100504.81
2023-03-27T02:24:25.631Z,100505.31
2023-03-27T02:27:01.891Z,100519.41
2023-03-27T02:29:42.957Z,100514.84
2023-03-27T02:32:21.043Z,100530.28
2023-03-27T02:35:02.777Z,100525.78
2023-03-27T02:37:42.144Z,100534.06
2023-03-27T02:40:20.343Z,100543.25
2023-03-27T02:43:01.209Z,100543.16
2023-03-27T02:45:41.756Z,100537.41
2023-03-27T02:48:13.841Z,100539.22
2023-03-27T02:50:47.271Z,100538.94
2023-03-27T02:53:19.215Z,100538.94
2023-03-27T02:55:52.602Z,100544.13
2023-03-27T02:58:30.611Z,100552.25
2023-03-27T03:01:01.074Z,100549.66
2023-03-27T03:03:35.911Z,100555.50
2023-03-27T03:06:07.023Z,100552.00
2023-03-27T03:08:38.208Z,100562.38
2023-03-27T03:11:10.192Z,100558.06
2023-03-27T03:13:39.285Z,100568.88
2023-03-27T03:16:08.610Z,100564.88
2023-03-27T03:18:36.959Z,100564.69
2023-03-27T03:21:05.788Z,100575.38
2023-03-27T03:23:33.938Z,100572.66
2023-03-27T03:26:01.559Z,100579.19
2023-03-27T03:28:29.131Z,100577.66
2023-03-27T03:30:59.109Z,100589.91
2023-03-27T03:33:28.013Z,100586.03
2023-03-27T03:35:58.932Z,100592.16
2023-03-27T03:38:27.896Z,100592.13
2023-03-27T03:40:57.339Z,100604.66
2023-03-27T03:43:26.913Z,100608.28
2023-03-27T03:45:55.752Z,100613.69
2023-03-27T03:48:25.393Z,100620.78
2023-03-27T03:50:53.199Z,100620.06
2023-03-27T03:53:22.547Z,100617.06
2023-03-27T03:55:52.624Z,100619.09
2023-03-27T03:58:21.039Z,100619.97
2023-03-27T04:01:02.771Z,100624.38
2023-03-27T04:03:32.672Z,100618.72
2023-03-27T04:06:01.628Z,100626.28
2023-03-27T04:08:29.378Z,100623.38
2023-03-27T04:10:58.800Z,100629.34
2023-03-27T04:13:27.709Z,100633.13
2023-03-27T04:15:55.501Z,100637.00
2023-03-27T04:18:24.739Z,100633.41
2023-03-27T04:20:54.444Z,100649.63
2023-03-27T04:23:22.097Z,100655.97
2023-03-27T04:25:49.748Z,100657.94
2023-03-27T04:28:17.398Z,100657.13
2023-03-27T04:30:45.138Z,100662.81
2023-03-27T04:33:18.159Z,100666.56
2023-03-27T04:35:46.197Z,100674.94
2023-03-27T04:38:34.852Z,100675.22
2023-03-27T04:41:02.606Z,100683.69
2023-03-27T04:43:30.897Z,100683.97
2023-03-27T04:45:58.620Z,100682.72
2023-03-27T04:48:26.482Z,100684.09
2023-03-27T04:50:54.573Z,100692.25
2023-03-27T04:53:23.309Z,100679.66
2023-03-27T04:55:52.329Z,100689.91
2023-03-27T04:58:20.010Z,100690.78
2023-03-27T05:00:50.357Z,100695.41
2023-03-27T05:03:19.090Z,100694.22
2023-03-27T05:05:49.541Z,100702.88
2023-03-27T05:08:17.362Z,100711.84
2023-03-27T05:10:45.776Z,100718.19
2023-03-27T05:13:15.034Z,100720.47
2023-03-27T05:15:43.148Z,100725.75
2023-03-27T05:18:10.782Z,100719.25
2023-03-27T05:20:38.532Z,100721.09
2023-03-27T05:23:06.075Z,100726.00
2023-03-27T05:25:34.167Z,100729.78
2023-03-27T05:28:02.016Z,100729.41
2023-03-27T05:30:31.061Z,100738.72
2023-03-27T05:32:59.289Z,100739.25
2023-03-27T05:35:28.374Z,100737.53
2023-03-27T05:37:57.334Z,100755.78
2023-03-27T05:40:26.849Z,100760.41
2023-03-27T05:42:56.307Z,100761.47
2023-03-27T05:45:24.647Z,100753.84
2023-03-27T05:47:55.029Z,100758.84
2023-03-27T05:50:25.327Z,100766.56
2023-03-27T05:52:55.860Z,100759.28
2023-03-27T05:55:26.399Z,100764.41
2023-03-27T05:57:56.033Z,100766.34
2023-03-27T06:00:25.716Z,100768.50
2023-03-27T06:02:57.307Z,100773.84
2023-03-27T06:05:26.582Z,100779.22
2023-03-27T06:07:55.795Z,100782.00
2023-03-27T06:10:23.475Z,100782.88
2023-03-27T06:12:59.612Z,100787.75
2023-03-27T06:15:27.375Z,100788.47
2023-03-27T06:17:56.547Z,100791.91
2023-03-27T06:20:24.929Z,100788.22
2023-03-27T06:22:55.519Z,100790.66
2023-03-27T06:25:24.948Z,100788.63
2023-03-27T06:27:53.336Z,100798.75
2023-03-27T06:30:23.415Z,100803.66
2023-03-27T06:32:53.907Z,100807.69
2023-03-27T06:35:23.656Z,100806.47
2023-03-27T06:37:51.605Z,100807.31
2023-03-27T06:40:22.827Z,100812.31
2023-03-27T06:42:52.007Z,100828.44
2023-03-27T06:45:19.869Z,100824.16
2023-03-27T06:47:54.857Z,100832.81
2023-03-27T06:50:25.863Z,100835.91
2023-03-27T06:52:53.754Z,100835.53
2023-03-27T06:55:23.094Z,100829.13
2023-03-27T06:57:52.967Z,100837.63
2023-03-27T07:00:24.506Z,100837.94
2023-03-27T07:02:56.444Z,100846.34
2023-03-27T07:05:26.338Z,100843.84
2023-03-27T07:07:55.267Z,100849.97
2023-03-27T07:10:24.378Z,100857.50
2023-03-27T07:12:54.179Z,100859.69
2023-03-27T07:15:23.837Z,100852.03
2023-03-27T07:17:55.749Z,100858.16
2023-03-27T07:20:27.733Z,100867.47
2023-03-27T07:22:56.552Z,100871.06
2023-03-27T07:25:24.390Z,100870.25
2023-03-27T07:27:52.149Z,100880.44
2023-03-27T07:30:19.760Z,100882.16
2023-03-27T07:32:47.792Z,100878.59
2023-03-27T07:35:15.776Z,100875.13
2023-03-27T07:37:44.751Z,100870.72
2023-03-27T07:40:14.061Z,100873.91
2023-03-27T07:42:46.054Z,100870.53
2023-03-27T07:45:14.169Z,100876.50
2023-03-27T07:47:42.670Z,100883.19
2023-03-27T07:50:11.796Z,100882.41
2023-03-27T07:52:40.806Z,100886.13
2023-03-27T07:55:12.361Z,100891.91
2023-03-27T07:57:58.097Z,100892.81
2023-03-27T08:00:28.516Z,100891.03
2023-03-27T08:03:06.893Z,100885.56
2023-03-27T08:05:35.080Z,100891.50
2023-03-27T08:08:02.883Z,100897.31
2023-03-27T08:10:31.918Z,100886.47
2023-03-27T08:12:59.812Z,100900.69
2023-03-27T08:15:27.539Z,100894.06
2023-03-27T08:17:56.753Z,100896.75
2023-03-27T08:20:24.805Z,100912.31
2023-03-27T08:22:53.460Z,100909.75
2023-03-27T08:25:22.501Z,100913.03
2023-03-27T08:27:52.092Z,100905.56
2023-03-27T08:30:21.570Z,100909.56
2023-03-27T08:32:49.828Z,100913.81
2023-03-27T08:35:18.190Z,100919.50
2023-03-27T08:37:45.973Z,100912.53
2023-03-27T08:40:19.956Z,100920.31
2023-03-27T08:42:51.238Z,100910.84
2023-03-27T08:45:23.607Z,100919.88
2023-03-27T08:47:54.540Z,100915.81
2023-03-27T08:50:33.281Z,100918.34
2023-03-27T08:53:04.540Z,100918.53
2023-03-27T08:55:40.225Z,100916.41
2023-03-27T08:58:17.775Z,100932.94
2023-03-27T09:00:51.384Z,100926.88
2023-03-27T09:03:25.662Z,100923.97
2023-03-27T09:05:58.590Z,100939.59
2023-03-27T09:08:37.301Z,100930.00
2023-03-27T09:11:14.616Z,100938.88
2023-03-27T09:13:47.271Z,100934.06
2023-03-27T09:16:22.248Z,100931.72
2023-03-27T09:18:58.117Z,100931.19
2023-03-27T09:21:35.541Z,100932.19
2023-03-27T09:24:10.094Z,100931.44
2023-03-27T09:26:38.662Z,100928.94
2023-03-27T09:29:20.506Z,100931.31
2023-03-27T09:31:51.705Z,100932.50
2023-03-27T09:34:25.584Z,100950.75
2023-03-27T09:36:54.324Z,100943.38
2023-03-27T09:39:27.451Z,100943.22
2023-03-27T09:41:59.595Z,100948.81
2023-03-27T09:44:32.882Z,100944.91
2023-03-27T09:47:07.806Z,100942.91
2023-03-27T09:49:36.140Z,100942.69
2023-03-27T09:52:05.937Z,100947.59
2023-03-27T09:54:51.751Z,100948.03
2023-03-27T09:57:20.105Z,100949.72
2023-03-27T09:59:58.385Z,100951.41
2023-03-27T10:02:30.122Z,100959.94
2023-03-27T10:05:00.719Z,100958.41
2023-03-27T10:07:28.603Z,100966.16
2023-03-27T10:10:08.887Z,100956.41
2023-03-27T10:12:37.992Z,100954.06
2023-03-27T10:15:08.587Z,100948.38
2023-03-27T10:17:41.088Z,100951.91
2023-03-27T10:20:15.697Z,100955.13
2023-03-27T10:22:54.482Z,100950.41
2023-03-27T10:25:30.124Z,100952.25
2023-03-27T10:28:09.428Z,100961.31
2023-03-27T10:30:40.666Z,100966.84
2023-03-27T10:33:09.823Z,100962.19
2023-03-27T10:35:39.943Z,100963.72
2023-03-27T10:38:14.085Z,100963.44
2023-03-27T10:40:44.143Z,100962.28
2023-03-27T10:43:14.425Z,100970.81
2023-03-27T10:45:48.411Z,100955.53
2023-03-27T10:48:33.639Z,100956.41
2023-03-27T10:51:05.609Z,100963.47
2023-03-27T10:53:42.051Z,101017.44
2023-03-27T10:56:15.477Z,101035.34
2023-03-27T10:58:48.086Z,101043.91
2023-03-27T11:01:20.953Z,101041.16
2023-03-27T11:03:54.823Z,101039.63
2023-03-27T11:06:27.177Z,101043.47
2023-03-27T11:09:05.630Z,101034.06
2023-03-27T11:11:38.235Z,101029.50
2023-03-27T11:14:12.014Z,101011.81
2023-03-27T11:16:43.331Z,101022.53
2023-03-27T11:19:28.653Z,101029.56
2023-03-27T11:22:01.223Z,101028.34
2023-03-27T11:24:39.488Z,101024.91
2023-03-27T11:27:15.012Z,101016.78
2023-03-27T11:29:48.061Z,101014.31
2023-03-27T11:32:22.816Z,101020.88
2023-03-27T11:34:57.471Z,101020.97
2023-03-27T11:37:35.143Z,101030.59
2023-03-27T11:40:10.812Z,101030.41
2023-03-27T11:42:43.179Z,101040.81
2023-03-27T11:45:14.669Z,101058.34
2023-03-27T11:47:54.931Z,101041.22
2023-03-27T11:50:31.879Z,101040.25
2023-03-27T11:53:16.750Z,101033.41
2023-03-27T11:56:01.800Z,101019.97
2023-03-27T11:58:35.728Z,101030.25
2023-03-27T12:01:12.617Z,101022.03
2023-03-27T12:04:09.211Z,101033.28
2023-03-27T12:06:49.546Z,101043.06
2023-03-27T12:09:27.255Z,101030.81
2023-03-27T12:12:06.439Z,101043.09
2023-03-27T12:14:47.235Z,101033.66
2023-03-27T12:17:43.861Z,101039.88
2023-03-27T12:20:28.738Z,101039.34
2023-03-27T12:23:02.872Z,101039.50
2023-03-27T12:25:49.287Z,101030.72
2023-03-27T12:28:33.511Z,101045.13
2023-03-27T12:31:11.554Z,101033.63
2023-03-27T12:33:49.435Z,101051.88
2023-03-27T12:36:21.611Z,101043.31
2023-03-27T12:38:52.841Z,101054.28
2023-03-27T12:41:23.980Z,101053.06
2023-03-27T12:43:56.091Z,101057.00
2023-03-27T12:46:36.534Z,101058.88
2023-03-27T12:49:47.540Z,101072.38
2023-03-27T12:52:18.611Z,101076.53
2023-03-27T12:55:09.267Z,101087.97
2023-03-27T12:57:44.234Z,101095.22
2023-03-27T13:00:22.109Z,101097.03
2023-03-27T13:03:20.224Z,101102.81
2023-03-27T13:06:03.977Z,101092.56
2023-03-27T13:08:50.281Z,101097.44
2023-03-27T13:11:32.640Z,101096.47
2023-03-27T13:14:18.249Z,101092.72
2023-03-27T13:17:07.389Z,101083.78
2023-03-27T13:19:45.687Z,101082.09
2023-03-27T13:22:29.051Z,101067.88
2023-03-27T13:25:11.478Z,101070.78
2023-03-27T13:28:01.891Z,101059.94
2023-03-27T13:30:45.407Z,101066.03
2023-03-27T13:33:17.169Z,101061.69
2023-03-27T13:36:03.861Z,101055.28
2023-03-27T13:39:09.808Z,101062.69
2023-03-27T13:41:58.482Z,101056.19
2023-03-27T13:44:35.781Z,101054.63
2023-03-27T13:47:29.056Z,101057.94
2023-03-27T13:50:14.786Z,101068.38
2023-03-27T13:53:13.155Z,101061.03
2023-03-27T13:56:03.162Z,101075.09
2023-03-27T13:58:48.257Z,101086.97
2023-03-27T14:01:34.185Z,101102.97
2023-03-27T14:04:27.449Z,101147.78
2023-03-27T14:07:31.801Z,101168.09
2023-03-27T14:10:18.027Z,101147.19
2023-03-27T14:12:58.510Z,101137.16
2023-03-27T14:15:53.966Z,101138.88
2023-03-27T14:19:02.271Z,101147.69
2023-03-27T14:21:38.568Z,101143.28
2023-03-27T14:24:19.263Z,101136.50
2023-03-27T14:26:48.738Z,101137.34
2023-03-27T14:29:17.759Z,101135.47
2023-03-27T14:31:46.013Z,101134.38
2023-03-27T14:34:18.223Z,101136.78
2023-03-27T14:36:46.432Z,101137.25
2023-03-27T14:39:16.429Z,101133.22
2023-03-27T14:41:48.688Z,101141.69
2023-03-27T14:44:20.332Z,101142.34
2023-03-27T14:46:50.073Z,101132.09
2023-03-27T14:49:21.058Z,101141.00
2023-03-27T14:51:53.541Z,101138.31
2023-03-27T14:54:28.664Z,101144.88
2023-03-27T14:57:00.225Z,101142.25
2023-03-27T14:59:34.604Z,101157.56
2023-03-27T15:02:05.927Z,101151.84
2023-03-27T15:04:38.210Z,101152.59
2023-03-27T15:07:14.384Z,101144.19
2023-03-27T15:09:42.767Z,101140.88
2023-03-27T15:12:11.832Z,101136.31
2023-03-27T15:14:41.499Z,101141.38
2023-03-27T15:17:14.746Z,101145.28
2023-03-27T15:19:48.382Z,101140.72
2023-03-27T15:22:23.391Z,101144.28
2023-03-27T15:24:56.763Z,101138.88
2023-03-27T15:27:27.741Z,101155.19
2023-03-27T15:29:58.882Z,101152.66
2023-03-27T15:32:32.177Z,101152.66
2023-03-27T15:35:05.322Z,101149.31
2023-03-27T15:37:34.934Z,101150.31
2023-03-27T15:40:31.226Z,101144.56
2023-03-27T15:43:03.444Z,101146.25
2023-03-27T15:45:40.938Z,101150.94
2023-03-27T15:48:19.314Z,101152.97
2023-03-27T15:50:57.376Z,101154.69
2023-03-27T15:53:34.075Z,101156.16
2023-03-27T15:56:04.389Z,101149.28
2023-03-27T15:58:44.086Z,101152.16
2023-03-27T16:01:19.622Z,101153.81
2023-03-27T16:03:50.477Z,101140.59
2023-03-27T16:06:30.701Z,101153.50
2023-03-27T16:09:00.764Z,101145.19
2023-03-27T16:11:50.376Z,101160.22
2023-03-27T16:14:27.425Z,101169.13
2023-03-27T16:17:11.726Z,101180.22
2023-03-27T16:19:44.084Z,101201.63
2023-03-27T16:22:13.152Z,101191.63
2023-03-27T16:24:41.332Z,101192.78
2023-03-27T16:27:11.114Z,101191.41
2023-03-27T16:29:38.760Z,101194.06
2023-03-27T16:32:12.190Z,101191.41
2023-03-27T16:34:40.014Z,101197.50
2023-03-27T16:37:08.582Z,101190.94
2023-03-27T16:39:36.534Z,101189.94
2023-03-27T16:42:04.450Z,101192.25
2023-03-27T16:44:32.213Z,101190.75
2023-03-27T16:46:59.906Z,101199.47
2023-03-27T16:49:28.936Z,101195.03
2023-03-27T16:51:56.664Z,101196.25
2023-03-27T16:54:24.531Z,101191.09
2023-03-27T16:56:52.198Z,101199.53
2023-03-27T16:59:20.271Z,101199.75
2023-03-27T17:01:48.139Z,101207.13
2023-03-27T17:04:15.932Z,101210.00
2023-03-27T17:06:45.430Z,101211.16
2023-03-27T17:09:13.803Z,101214.34
2023-03-27T17:11:42.530Z,101220.75
2023-03-27T17:14:10.481Z,101229.22
2023-03-27T17:16:38.360Z,101226.63
2023-03-27T17:19:06.485Z,101235.09
2023-03-27T17:21:34.140Z,101248.47
2023-03-27T17:24:03.133Z,101254.59
2023-03-27T17:26:32.836Z,101250.81
2023-03-27T17:29:01.331Z,101257.09
2023-03-27T17:31:30.749Z,101263.09
2023-03-27T17:33:59.059Z,101266.47
2023-03-27T17:36:39.712Z,101268.81
2023-03-27T17:39:09.678Z,101278.91
2023-03-27T17:41:37.338Z,101277.16
2023-03-27T17:44:07.419Z,101284.28
2023-03-27T17:46:36.018Z,101287.94
2023-03-27T17:49:03.864Z,101286.81
2023-03-27T17:51:31.815Z,101278.19
2023-03-27T17:53:59.850Z,101287.28
2023-03-27T17:56:29.161Z,101299.09
2023-03-27T17:58:57.151Z,101295.84
2023-03-27T18:01:25.213Z,101303.28
2023-03-27T18:03:53.194Z,101304.88
2023-03-27T18:06:21.149Z,101311.34
2023-03-27T18:08:48.898Z,101300.84
2023-03-27T18:11:17.311Z,101299.00
2023-03-27T18:13:51.325Z,101317.66
2023-03-27T18:16:19.928Z,101324.91
2023-03-27T18:18:47.810Z,101332.38
2023-03-27T18:21:16.447Z,101343.56
2023-03-27T18:23:46.135Z,101338.81
2023-03-27T18:26:14.685Z,101335.09
2023-03-27T18:28:42.277Z,101350.81
2023-03-27T18:31:12.925Z,101352.50
2023-03-27T18:33:40.786Z,101344.28
2023-03-27T18:36:10.817Z,101347.44
2023-03-27T18:38:40.614Z,101351.81
2023-03-27T18:41:09.056Z,101347.94
2023-03-27T18:43:36.828Z,101350.56
2023-03-27T18:46:06.456Z,101345.06
2023-03-27T18:48:36.276Z,101346.94
2023-03-27T18:51:06.616Z,101357.13
2023-03-27T18:53:34.327Z,101347.06
2023-03-27T18:56:03.302Z,101346.47
2023-03-27T18:58:31.295Z,101349.31
2023-03-27T19:00:59.843Z,101347.38
2023-03-27T19:03:30.691Z,101347.94
2023-03-27T19:06:03.076Z,101355.03
2023-03-27T19:08:31.541Z,101361.84
2023-03-27T19:10:59.394Z,101348.25
2023-03-27T19:13:27.403Z,101357.50
2023-03-27T19:15:55.454Z,101350.53
2023-03-27T19:18:25.426Z,101360.16
2023-03-27T19:20:53.778Z,101359.50
2023-03-27T19:23:23.144Z,101350.97
2023-03-27T19:25:51.713Z,101354.94
2023-03-27T19:28:19.403Z,101344.03
2023-03-27T19:30:47.422Z,101346.47
2023-03-27T19:33:15.453Z,101344.38
2023-03-27T19:35:43.447Z,101354.44
2023-03-27T19:38:11.118Z,101354.75
2023-03-27T19:40:40.137Z,101356.06
2023-03-27T19:43:07.717Z,101370.19
2023-03-27T19:45:35.292Z,101370.50
2023-03-27T19:48:03.562Z,101360.88
2023-03-27T19:50:31.552Z,101367.84
2023-03-27T19:53:08.793Z,101368.56
2023-03-27T19:55:37.115Z,101377.19
2023-03-27T19:58:06.361Z,101374.06
2023-03-27T20:00:34.999Z,101368.41
2023-03-27T20:03:02.813Z,101374.78
2023-03-27T20:05:31.108Z,101372.53
2023-03-27T20:07:58.770Z,101379.28
2023-03-27T20:10:27.043Z,101378.47
2023-03-27T20:12:54.723Z,101373.13
2023-03-27T20:15:23.664Z,101371.84
2023-03-27T20:17:53.420Z,101367.59
2023-03-27T20:20:21.002Z,101373.53
2023-03-27T20:25:19.292Z,101381.41
2023-03-27T20:27:46.899Z,101381.41
2023-03-27T20:30:14.883Z,101375.50
2023-03-27T20:32:44.082Z,101378.91
2023-03-27T20:35:22.666Z,101371.53
2023-03-27T20:37:56.395Z,101388.50
2023-03-27T20:40:24.366Z,101383.28
2023-03-27T20:43:02.820Z,101382.28
2023-03-27T20:45:31.014Z,101379.47
2023-03-27T20:48:03.912Z,101382.72
2023-03-27T20:50:34.807Z,101383.97
2023-03-27T20:53:04.379Z,101379.16
2023-03-27T20:55:36.137Z,101380.59
2023-03-27T20:58:09.230Z,101376.06
2023-03-27T21:00:36.903Z,101375.66
2023-03-27T21:03:06.200Z,101371.28
2023-03-27T21:05:38.217Z,101374.94
2023-03-27T21:08:07.305Z,101384.81
2023-03-27T21:10:35.181Z,101380.41
2023-03-27T21:13:03.078Z,101385.78
2023-03-27T21:15:31.907Z,101375.22
2023-03-27T21:18:00.415Z,101384.25
2023-03-27T21:20:32.717Z,101385.66
2023-03-27T21:23:02.233Z,101385.09
2023-03-27T21:25:29.876Z,101385.78
2023-03-27T21:27:57.468Z,101385.78
2023-03-27T21:30:25.091Z,101381.97
2023-03-27T21:33:12.806Z,101390.16
2023-03-27T21:35:45.363Z,101400.31
2023-03-27T21:38:13.538Z,101399.19
2023-03-27T21:40:41.464Z,101394.81
2023-03-27T21:43:09.265Z,101408.78
2023-03-27T21:45:37.663Z,101401.03
2023-03-27T21:48:05.809Z,101403.13
2023-03-27T21:50:33.464Z,101402.03
2023-03-27T21:53:02.553Z,101398.34
2023-03-27T21:55:30.230Z,101397.38
2023-03-27T21:57:58.986Z,101392.69
2023-03-27T22:00:27.976Z,101392.81
2023-03-27T22:02:56.983Z,101407.06
2023-03-27T22:05:24.758Z,101414.13
2023-03-27T22:07:52.463Z,101410.13
2023-03-27T22:10:21.393Z,101409.31
2023-03-27T22:12:49.158Z,101418.09
2023-03-27T22:15:16.684Z,101414.44
2023-03-27T22:17:44.353Z,101411.16
2023-03-27T22:20:12.378Z,101427.00
2023-03-27T22:22:40.093Z,101428.09
2023-03-27T22:25:08.644Z,101443.47
2023-03-27T22:27:37.967Z,101429.78
2023-03-27T22:30:06.746Z,101427.38
2023-03-27T22:32:34.400Z,101426.41
2023-03-27T22:35:02.163Z,101435.88
2023-03-27T22:37:29.813Z,101433.63
2023-03-27T22:39:57.540Z,101441.09
2023-03-27T22:42:25.516Z,101442.22
2023-03-27T22:44:54.660Z,101433.75
2023-03-27T22:47:22.859Z,101437.88
2023-03-27T22:49:50.498Z,101450.34
2023-03-27T22:52:18.419Z,101455.84
2023-03-27T22:54:46.211Z,101450.19
2023-03-27T22:57:14.064Z,101461.78
2023-03-27T22:59:41.694Z,101451.75
2023-03-27T23:02:10.923Z,101457.53
2023-03-27T23:04:38.610Z,101463.66
2023-03-27T23:07:06.403Z,101465.97
2023-03-27T23:09:34.054Z,101457.78
2023-03-27T23:12:01.744Z,101460.19
2023-03-27T23:14:29.483Z,101471.63
2023-03-27T23:16:57.226Z,101464.69
2023-03-27T23:19:26.239Z,101467.44
2023-03-27T23:21:53.834Z,101466.16
2023-03-27T23:24:21.650Z,101473.53
2023-03-27T23:26:49.230Z,101466.13
2023-03-27T23:29:16.993Z,101479.06
2023-03-27T23:31:45.748Z,101481.19
2023-03-27T23:34:13.420Z,101470.84
2023-03-27T23:36:42.366Z,101481.84
2023-03-27T23:39:10.397Z,101488.59
2023-03-27T23:41:38.035Z,101483.00
2023-03-27T23:44:05.790Z,101482.09
2023-03-27T23:46:33.850Z,101486.41
2023-03-27T23:49:02.407Z,101499.69
2023-03-27T23:51:30.183Z,101491.63
2023-03-27T23:53:59.244Z,101504.34
2023-03-27T23:56:27.012Z,101524.59
2023-03-27T23:58:54.663Z,101511.66
